createdAt,value
2023-03-23T15:57:52.542Z,55.17
2023-03-23T16:00:21.140Z,56.18
2023-03-23T16:02:51.120Z,55.98
2023-03-23T16:05:17.536Z,56.18
2023-03-23T16:07:44.372Z,55.66
2023-03-23T16:10:17.210Z,55.59
2023-03-23T16:12:44.227Z,56.10
2023-03-23T16:15:10.612Z,55.92
2023-03-23T16:17:37.532Z,56.56
2023-03-23T16:20:12.586Z,56.62
2023-03-23T16:22:39.269Z,56.24
2023-03-23T16:25:06.147Z,56.20
2023-03-23T16:27:32.533Z,56.47
2023-03-23T16:30:04.158Z,56.33
2023-03-23T16:32:31.296Z,56.43
2023-03-23T16:34:57.708Z,56.58
2023-03-23T16:37:24.074Z,56.81
2023-03-23T16:39:50.472Z,56.40
2023-03-23T16:42:16.997Z,56.68
2023-03-23T16:44:43.376Z,57.24
2023-03-23T16:47:09.745Z,58.02
2023-03-23T16:49:36.901Z,58.39
2023-03-23T16:52:03.289Z,59.36
2023-03-23T16:54:29.682Z,60.23
2023-03-23T16:56:56.193Z,60.26
2023-03-23T16:59:22.591Z,60.05
2023-03-23T17:01:49.129Z,60.05
2023-03-23T17:04:15.748Z,60.45
2023-03-23T17:06:43.986Z,60.24
2023-03-23T17:09:10.451Z,59.99
2023-03-23T17:11:36.976Z,60.13
2023-03-23T17:14:03.442Z,60.42
2023-03-23T17:16:29.830Z,60.67
2023-03-23T17:18:56.400Z,60.45
2023-03-23T17:21:25.600Z,60.26
2023-03-23T17:23:52.370Z,60.17
2023-03-23T17:26:18.732Z,59.86
2023-03-23T17:28:45.147Z,59.87
2023-03-23T17:31:11.620Z,59.91
2023-03-23T17:33:38.204Z,59.85
2023-03-23T17:36:04.734Z,60.06
2023-03-23T17:38:31.286Z,59.95
2023-03-23T17:40:59.101Z,59.90
2023-03-23T17:43:25.549Z,60.00
2023-03-23T17:45:51.915Z,59.76
2023-03-23T17:48:18.874Z,59.62
2023-03-23T17:50:49.331Z,59.35
2023-03-23T17:53:15.820Z,59.54
2023-03-23T17:55:43.427Z,59.72
2023-03-23T17:58:10.179Z,59.71
2023-03-23T18:00:37.555Z,59.73
2023-03-23T18:03:04.089Z,60.18
2023-03-23T18:05:31.908Z,60.69
2023-03-23T18:07:58.913Z,60.62
2023-03-23T18:10:25.507Z,60.65
2023-03-23T18:12:52.053Z,60.95
2023-03-23T18:15:18.645Z,61.41
2023-03-23T18:17:48.104Z,60.88
2023-03-23T18:20:14.875Z,60.75
2023-03-23T18:22:41.291Z,61.32
2023-03-23T18:25:07.931Z,61.57
2023-03-23T18:27:34.614Z,61.71
2023-03-23T18:30:02.513Z,62.10
2023-03-23T18:32:28.946Z,62.13
2023-03-23T18:34:56.017Z,62.21
2023-03-23T18:37:22.657Z,62.34
2023-03-23T18:39:49.085Z,62.82
2023-03-23T18:42:15.470Z,62.74
2023-03-23T18:44:41.884Z,63.04
2023-03-23T18:47:08.281Z,63.10
2023-03-23T18:49:35.036Z,63.54
2023-03-23T18:52:01.602Z,63.07
2023-03-23T18:54:29.117Z,63.09
2023-03-23T18:56:55.932Z,63.29
2023-03-23T18:59:30.278Z,63.35
2023-03-23T19:01:57.428Z,63.69
2023-03-23T19:04:23.957Z,63.92
2023-03-23T19:06:50.594Z,64.06
2023-03-23T19:09:18.742Z,64.20
2023-03-23T19:11:46.311Z,64.09
2023-03-23T19:14:13.514Z,64.25
2023-03-23T19:16:39.991Z,64.34
2023-03-23T19:19:08.358Z,64.33
2023-03-23T19:21:35.628Z,64.46
2023-03-23T19:24:02.813Z,64.56
2023-03-23T19:26:41.851Z,64.69
2023-03-23T19:31:45.712Z,64.49
2023-03-23T19:34:13.752Z,64.58
2023-03-23T19:36:40.401Z,64.63
2023-03-23T19:39:08.765Z,64.53
2023-03-23T19:41:36.630Z,64.28
2023-03-23T19:44:03.991Z,64.14
2023-03-23T19:46:31.554Z,63.92
2023-03-23T19:48:58.794Z,63.89
2023-03-23T19:51:25.366Z,63.54
2023-03-23T19:53:51.983Z,63.47
2023-03-23T19:56:22.555Z,63.09
2023-03-23T19:58:49.241Z,63.08
2023-03-23T20:01:16.174Z,63.12
2023-03-23T20:03:43.375Z,62.86
2023-03-23T20:06:12.349Z,62.86
2023-03-23T20:08:44.006Z,62.47
2023-03-23T20:11:12.571Z,62.74
2023-03-23T20:13:39.959Z,62.72
2023-03-23T20:16:07.363Z,62.63
2023-03-23T20:18:34.015Z,62.64
2023-03-23T20:21:02.075Z,62.55
2023-03-23T20:23:28.619Z,62.54
2023-03-23T20:26:01.007Z,62.37
2023-03-23T20:28:28.515Z,62.40
2023-03-23T20:31:16.926Z,62.59
2023-03-23T20:33:47.968Z,62.36
2023-03-23T20:36:30.058Z,62.37
2023-03-23T20:38:59.353Z,62.21
2023-03-23T20:41:26.168Z,62.18
2023-03-23T20:43:52.778Z,62.07
2023-03-23T20:46:21.999Z,62.05
2023-03-23T20:48:50.575Z,62.28
2023-03-23T20:51:17.445Z,62.45
2023-03-23T20:53:44.945Z,62.72
2023-03-23T20:56:11.616Z,62.96
2023-03-23T20:58:38.047Z,62.87
2023-03-23T21:01:05.932Z,62.85
2023-03-23T21:03:38.591Z,63.03
2023-03-23T21:06:07.328Z,63.07
2023-03-23T21:08:36.444Z,63.17
2023-03-23T21:11:04.612Z,63.54
2023-03-23T21:13:31.398Z,63.95
2023-03-23T21:15:57.960Z,63.82
2023-03-23T21:18:24.506Z,63.95
2023-03-23T21:20:50.972Z,64.10
2023-03-23T21:23:19.401Z,64.10
2023-03-23T21:25:47.520Z,64.09
2023-03-23T21:28:15.208Z,64.15
2023-03-23T21:30:45.501Z,64.23
2023-03-23T21:33:13.399Z,64.18
2023-03-23T21:35:42.238Z,64.33
2023-03-23T21:38:14.241Z,64.31
2023-03-23T21:40:45.073Z,64.78
2023-03-23T21:43:13.739Z,65.19
2023-03-23T21:45:44.818Z,64.95
2023-03-23T21:48:12.604Z,64.91
2023-03-23T21:50:43.554Z,64.99
2023-03-23T21:53:12.797Z,65.04
2023-03-23T21:55:41.048Z,64.90
2023-03-23T21:58:09.513Z,64.93
2023-03-23T22:00:36.322Z,65.04
2023-03-23T22:03:04.560Z,64.82
2023-03-23T22:05:32.062Z,64.73
2023-03-23T22:07:58.804Z,64.86
2023-03-23T22:10:25.323Z,65.05
2023-03-23T22:12:54.336Z,65.40
2023-03-23T22:15:27.629Z,65.50
2023-03-23T22:17:55.322Z,65.51
2023-03-23T22:20:21.876Z,65.63
2023-03-23T22:22:48.973Z,65.71
2023-03-23T22:25:15.433Z,65.62
2023-03-23T22:27:43.137Z,65.72
2023-03-23T22:30:09.862Z,65.92
2023-03-23T22:32:36.790Z,65.77
2023-03-23T22:35:03.561Z,66.32
2023-03-23T22:37:29.954Z,66.03
2023-03-23T22:39:56.333Z,66.19
2023-03-23T22:42:22.761Z,66.25
2023-03-23T22:44:49.138Z,65.94
2023-03-23T22:47:15.664Z,65.81
2023-03-23T22:49:42.058Z,65.63
2023-03-23T22:52:08.625Z,66.06
2023-03-23T22:54:35.250Z,65.73
2023-03-23T22:57:01.705Z,65.87
2023-03-23T22:59:28.104Z,65.49
2023-03-23T23:01:54.823Z,65.75
2023-03-23T23:04:21.274Z,65.86
2023-03-23T23:06:47.790Z,65.82
2023-03-23T23:09:14.910Z,65.88
2023-03-23T23:11:41.271Z,65.86
2023-03-23T23:14:07.816Z,65.89
2023-03-23T23:16:34.383Z,66.38
2023-03-23T23:19:01.493Z,66.54
2023-03-23T23:21:28.802Z,66.82
2023-03-23T23:23:55.658Z,66.87
2023-03-23T23:26:22.617Z,67.09
2023-03-23T23:28:49.833Z,67.38
2023-03-23T23:31:26.164Z,67.18
2023-03-23T23:33:55.305Z,67.32
2023-03-23T23:36:21.766Z,67.46
2023-03-23T23:38:48.883Z,67.22
2023-03-23T23:41:15.367Z,67.40
2023-03-23T23:43:42.084Z,67.76
2023-03-23T23:46:08.599Z,67.58
2023-03-23T23:48:35.257Z,67.69
2023-03-23T23:51:01.701Z,67.92
2023-03-23T23:53:28.720Z,68.34
2023-03-23T23:55:55.112Z,68.22
2023-03-23T23:58:21.741Z,68.08
